Time;durP1;ratioP1;P1;durP2;ratioP2;P2;SDS_P1;SDS_P2;PMS_P1;PMS_P2;Temp;Humidity;BMP_temperature;BMP_pressure;BME280_temperature;BME280_humidity;BME280_pressure;Samples;Min_cycle;Max_cycle;Signal;HPM_P1;HPM_P2
2022/10/12 00:00:07;;;;;;;;;;;6.50;99.90;;;;;;4993609;28;20506;-96
2022/10/12 00:02:32;;;;;;;;;;;6.40;99.90;;;;;;4994645;28;19975;-96
2022/10/12 00:04:58;;;;;;;;;;;6.40;99.90;;;;;;4992922;28;19921;-96
2022/10/12 00:07:24;;;;;;;;;;;7.20;99.90;;;;;;4995952;28;19921;-96
2022/10/12 00:09:49;;;;;;;;;;;7.10;99.90;;;;;;4992816;28;19921;-94
2022/10/12 00:12:15;;;;;;;;;;;7.60;99.90;;;;;;4994847;28;19921;-94
2022/10/12 00:14:40;;;;;;;;;;;6.30;99.90;;;;;;4993126;28;19993;-95
2022/10/12 00:17:06;;;;;;;;;;;7.70;99.90;;;;;;4993693;28;19921;-95
2022/10/12 00:19:32;;;;;;;;;;;6.30;99.90;;;;;;4994059;28;19921;-96
2022/10/12 00:21:57;;;;;;;;;;;7.10;99.90;;;;;;5009572;28;19920;-95
2022/10/12 00:24:23;;;;;;;;;;;7.50;99.90;;;;;;5010803;28;20450;-93
2022/10/12 00:26:49;;;;;;;;;;;6.30;99.90;;;;;;4992141;28;19971;-94
2022/10/12 00:29:15;;;;;;;;;;;7.10;99.90;;;;;;4994480;28;20369;-95
2022/10/12 00:31:40;;;;;;;;;;;5.70;99.90;;;;;;5009917;28;20008;-95
2022/10/12 00:34:06;;;;;;;;;;;6.90;99.90;;;;;;4994200;28;19921;-95
2022/10/12 00:36:32;;;;;;;;;;;7.60;99.90;;;;;;4993695;28;20019;-94
2022/10/12 00:38:58;;;;;;;;;;;7.30;99.90;;;;;;4992813;28;19921;-94
2022/10/12 00:41:26;;;;;;;;;;;6.60;99.90;;;;;;5010926;28;19971;-95
2022/10/12 00:43:52;;;;;;;;;;;6.20;99.90;;;;;;5009539;28;20015;-95
2022/10/12 00:46:20;;;;;;;;;;;6.20;99.90;;;;;;4994091;28;19964;-94
2022/10/12 00:48:48;;;;;;;;;;;6.20;99.90;;;;;;5007969;28;19921;-95
2022/10/12 00:51:15;;;;;;;;;;;7.50;99.90;;;;;;5010687;28;19921;-94
2022/10/12 00:53:43;;;;;;;;;;;7.40;99.90;;;;;;5009681;28;20026;-94
2022/10/12 00:56:11;;;;;;;;;;;7.30;99.90;;;;;;5009189;28;19928;-93
2022/10/12 00:58:37;;;;;;;;;;;7.10;99.90;;;;;;5010691;28;19921;-93
2022/10/12 01:01:03;;;;;;;;;;;7.50;99.90;;;;;;5008392;28;20020;-94
2022/10/12 01:03:29;;;;;;;;;;;7.20;99.90;;;;;;5010330;28;19921;-93
2022/10/12 01:05:55;;;;;;;;;;;6.50;99.90;;;;;;4992073;28;20039;-93
2022/10/12 01:08:21;;;;;;;;;;;6.70;99.90;;;;;;5010547;28;20401;-94
2022/10/12 01:10:47;;;;;;;;;;;6.90;99.90;;;;;;5008749;28;19940;-94
2022/10/12 01:13:13;;;;;;;;;;;6.00;99.90;;;;;;4993116;28;19925;-94
2022/10/12 01:15:41;;;;;;;;;;;7.40;99.90;;;;;;4994040;28;19921;-93
2022/10/12 01:18:11;;;;;;;;;;;6.00;99.90;;;;;;5009187;28;19972;-94
2022/10/12 01:20:42;;;;;;;;;;;7.00;99.90;;;;;;5010549;28;19921;-93
2022/10/12 01:23:17;;;;;;;;;;;7.20;99.90;;;;;;5008330;28;19924;-94
2022/10/12 01:25:54;;;;;;;;;;;6.00;99.90;;;;;;5026572;28;19921;-94
2022/10/12 01:28:33;;;;;;;;;;;5.90;99.90;;;;;;5009163;28;19923;-93
2022/10/12 01:31:03;;;;;;;;;;;6.00;99.90;;;;;;5009389;28;19982;-94
2022/10/12 01:33:37;;;;;;;;;;;6.00;99.90;;;;;;5010249;28;20378;-95
2022/10/12 01:36:09;;;;;;;;;;;6.00;99.90;;;;;;5008635;28;19925;-93
2022/10/12 01:38:41;;;;;;;;;;;6.00;99.90;;;;;;5009732;28;19928;-93
2022/10/12 01:41:25;;;;;;;;;;;5.90;99.90;;;;;;5010162;28;19920;-93
2022/10/12 01:43:51;;;;;;;;;;;6.00;99.90;;;;;;5012766;28;19924;-93
2022/10/12 01:46:16;;;;;;;;;;;5.90;99.90;;;;;;5013372;28;19997;-93
2022/10/12 01:48:44;;;;;;;;;;;7.20;99.90;;;;;;5012153;28;19967;-93
2022/10/12 01:51:10;;;;;;;;;;;6.40;99.90;;;;;;5014084;28;19928;-94
2022/10/12 01:53:44;;;;;;;;;;;5.90;99.90;;;;;;4995232;28;19921;-94
2022/10/12 01:56:27;;;;;;;;;;;5.90;99.90;;;;;;5013849;28;19925;-93
2022/10/12 01:58:53;;;;;;;;;;;5.90;99.90;;;;;;5012638;28;19932;-94
2022/10/12 02:01:31;;;;;;;;;;;6.90;99.90;;;;;;5012974;28;19921;-94
2022/10/12 02:04:15;;;;;;;;;;;5.80;99.90;;;;;;5014073;28;19921;-93
2022/10/12 02:06:44;;;;;;;;;;;5.80;99.90;;;;;;5011103;28;19987;-96
2022/10/12 02:09:13;;;;;;;;;;;5.80;99.90;;;;;;5013099;28;20434;-95
2022/10/12 02:11:40;;;;;;;;;;;6.10;99.90;;;;;;5012134;28;19921;-95
2022/10/12 02:14:18;;;;;;;;;;;5.80;99.90;;;;;;5012203;28;19963;-94
2022/10/12 02:16:46;;;;;;;;;;;5.80;99.90;;;;;;5013243;28;19927;-94
2022/10/12 02:19:14;;;;;;;;;;;7.20;99.90;;;;;;5011245;28;20018;-94
2022/10/12 02:21:40;;;;;;;;;;;6.90;99.90;;;;;;5012702;28;20486;-94
2022/10/12 02:24:07;;;;;;;;;;;7.20;99.90;;;;;;5011143;28;19960;-95
2022/10/12 02:26:34;;;;;;;;;;;5.80;99.90;;;;;;5012297;28;19932;-94
2022/10/12 02:29:02;;;;;;;;;;;7.20;99.90;;;;;;5012227;28;20352;-95
2022/10/12 02:31:46;;;;;;;;;;;7.20;99.90;;;;;;5011996;28;20019;-95
2022/10/12 02:34:21;;;;;;;;;;;5.90;99.90;;;;;;5013048;28;19921;-94
2022/10/12 02:36:46;;;;;;;;;;;6.00;99.90;;;;;;5010824;28;20011;-95
2022/10/12 02:39:14;;;;;;;;;;;6.20;99.90;;;;;;5013461;28;20018;-94
2022/10/12 02:41:42;;;;;;;;;;;5.40;99.90;;;;;;5013100;28;19928;-94
2022/10/12 02:44:10;;;;;;;;;;;6.90;99.90;;;;;;5021581;28;19986;-94
2022/10/12 02:46:37;;;;;;;;;;;6.10;99.90;;;;;;5024494;28;19929;-94
2022/10/12 02:49:03;;;;;;;;;;;6.10;99.90;;;;;;5024949;28;19924;-94
2022/10/12 02:51:30;;;;;;;;;;;6.10;99.90;;;;;;5019305;28;20271;-96
2022/10/12 02:53:55;;;;;;;;;;;7.10;99.90;;;;;;5034257;28;19921;-90
2022/10/12 02:56:22;;;;;;;;;;;7.40;99.90;;;;;;5016819;28;19967;-94
2022/10/12 02:58:47;;;;;;;;;;;6.30;99.90;;;;;;5010791;28;19932;-94
2022/10/12 03:01:15;;;;;;;;;;;7.30;99.90;;;;;;5018077;28;19965;-94
2022/10/12 03:03:41;;;;;;;;;;;6.20;99.90;;;;;;5035552;28;19985;-95
2022/10/12 03:06:07;;;;;;;;;;;7.60;99.90;;;;;;5017961;28;19921;-95
2022/10/12 03:08:33;;;;;;;;;;;6.30;99.90;;;;;;5034382;28;19925;-94
2022/10/12 03:11:02;;;;;;;;;;;7.10;99.90;;;;;;5016090;28;19947;-94
2022/10/12 03:13:27;;;;;;;;;;;6.30;99.90;;;;;;4998778;28;20021;-94
2022/10/12 03:15:53;;;;;;;;;;;7.60;99.90;;;;;;4994649;28;20360;-96
2022/10/12 03:18:19;;;;;;;;;;;7.60;99.90;;;;;;4997187;28;19921;-95
2022/10/12 03:20:47;;;;;;;;;;;7.30;99.90;;;;;;5012397;28;19982;-94
2022/10/12 03:23:13;;;;;;;;;;;6.30;99.90;;;;;;4994322;28;19925;-92
2022/10/12 03:25:39;;;;;;;;;;;7.60;99.90;;;;;;5000100;28;19921;-96
2022/10/12 03:28:04;;;;;;;;;;;6.80;99.90;;;;;;5000004;28;19921;-94
2022/10/12 03:30:30;;;;;;;;;;;6.20;99.90;;;;;;5001627;28;19928;-94
2022/10/12 03:32:57;;;;;;;;;;;7.50;99.90;;;;;;4998025;28;19936;-94
2022/10/12 03:35:23;;;;;;;;;;;6.20;99.90;;;;;;5016271;28;19925;-94
2022/10/12 03:37:48;;;;;;;;;;;6.20;99.90;;;;;;4998117;28;20399;-94
2022/10/12 03:40:14;;;;;;;;;;;7.40;99.90;;;;;;5016010;28;19948;-92
2022/10/12 03:42:40;;;;;;;;;;;6.20;99.90;;;;;;4999066;28;20403;-94
2022/10/12 03:45:05;;;;;;;;;;;6.70;99.90;;;;;;5001476;28;19928;-95
2022/10/12 03:47:31;;;;;;;;;;;6.10;99.90;;;;;;5002997;28;19932;-94
2022/10/12 03:49:57;;;;;;;;;;;6.10;99.90;;;;;;5021022;28;19921;-94
2022/10/12 03:52:23;;;;;;;;;;;6.10;99.90;;;;;;5017160;28;19925;-94
2022/10/12 03:54:48;;;;;;;;;;;6.10;99.90;;;;;;5032639;28;19921;-93
2022/10/12 03:57:14;;;;;;;;;;;6.10;99.90;;;;;;5025983;28;19961;-95
2022/10/12 03:59:40;;;;;;;;;;;6.10;99.90;;;;;;5020518;28;19922;-94
2022/10/12 04:02:05;;;;;;;;;;;6.10;99.90;;;;;;5004705;28;19928;-94
2022/10/12 04:04:31;;;;;;;;;;;7.10;99.90;;;;;;5002521;28;19921;-93
2022/10/12 04:06:56;;;;;;;;;;;7.30;99.90;;;;;;5003575;28;19927;-93
2022/10/12 04:09:23;;;;;;;;;;;6.10;99.90;;;;;;5004607;28;20497;-93
2022/10/12 04:11:48;;;;;;;;;;;6.10;99.90;;;;;;5018886;28;20007;-95
2022/10/12 04:14:14;;;;;;;;;;;6.10;99.90;;;;;;5019822;28;19959;-95
2022/10/12 04:16:40;;;;;;;;;;;6.20;99.90;;;;;;5002869;28;20335;-95
2022/10/12 04:19:05;;;;;;;;;;;5.10;99.90;;;;;;5001131;28;19921;-95
2022/10/12 04:21:31;;;;;;;;;;;7.40;99.90;;;;;;4997860;28;19920;-95
2022/10/12 04:23:56;;;;;;;;;;;7.50;99.90;;;;;;4996983;28;20331;-95
2022/10/12 04:26:22;;;;;;;;;;;6.20;99.90;;;;;;4997232;28;19921;-91
2022/10/12 04:28:47;;;;;;;;;;;6.90;99.90;;;;;;4995674;28;19920;-90
2022/10/12 04:31:13;;;;;;;;;;;7.40;99.90;;;;;;4998442;28;19970;-90
2022/10/12 04:33:39;;;;;;;;;;;7.50;99.90;;;;;;4998434;28;19992;-92
2022/10/12 04:36:04;;;;;;;;;;;7.50;99.90;;;;;;5001832;28;20392;-91
2022/10/12 04:38:30;;;;;;;;;;;6.20;99.90;;;;;;5000285;28;19969;-92
2022/10/12 04:40:56;;;;;;;;;;;6.20;99.90;;;;;;5018055;28;19990;-92
2022/10/12 04:43:22;;;;;;;;;;;6.20;99.90;;;;;;5017599;28;19932;-91
2022/10/12 04:45:54;;;;;;;;;;;7.40;99.90;;;;;;5019844;28;19923;-91
2022/10/12 04:48:20;;;;;;;;;;;6.20;99.90;;;;;;5037046;28;19920;-90
2022/10/12 04:50:46;;;;;;;;;;;6.20;99.90;;;;;;5036045;28;19943;-94
2022/10/12 04:53:13;;;;;;;;;;;7.30;99.90;;;;;;5036382;28;19948;-94
2022/10/12 04:55:52;;;;;;;;;;;6.10;99.90;;;;;;5021339;28;19947;-95
2022/10/12 04:58:17;;;;;;;;;;;6.60;99.90;;;;;;5032267;28;19920;-95
2022/10/12 05:00:43;;;;;;;;;;;6.40;99.90;;;;;;5001029;28;19931;-95
2022/10/12 05:03:08;;;;;;;;;;;6.00;99.90;;;;;;5017414;28;19921;-95
2022/10/12 05:05:35;;;;;;;;;;;7.10;99.90;;;;;;4999779;28;20376;-92
2022/10/12 05:08:01;;;;;;;;;;;7.30;99.90;;;;;;5016511;28;19932;-95
2022/10/12 05:10:26;;;;;;;;;;;5.90;99.90;;;;;;5016607;28;20330;-93
2022/10/12 05:12:52;;;;;;;;;;;6.00;99.90;;;;;;5015008;28;19967;-91
2022/10/12 05:15:18;;;;;;;;;;;5.90;99.90;;;;;;5016285;28;20030;-94
2022/10/12 05:17:43;;;;;;;;;;;7.20;99.90;;;;;;5016382;28;20376;-89
2022/10/12 05:20:09;;;;;;;;;;;5.90;99.90;;;;;;5021475;28;19964;-93
2022/10/12 05:22:34;;;;;;;;;;;5.90;99.90;;;;;;5039046;28;19921;-93
2022/10/12 05:25:00;;;;;;;;;;;6.80;99.90;;;;;;5041974;28;20222;-91
2022/10/12 05:27:26;;;;;;;;;;;6.90;99.90;;;;;;5044129;28;19935;-93
2022/10/12 05:29:53;;;;;;;;;;;6.00;99.90;;;;;;5010002;28;19920;-90
2022/10/12 05:32:21;;;;;;;;;;;5.80;99.90;;;;;;5044621;28;19921;-91
2022/10/12 05:34:47;;;;;;;;;;;6.90;99.90;;;;;;5026958;28;19921;-92
2022/10/12 05:37:12;;;;;;;;;;;5.80;99.90;;;;;;5008714;28;19932;-93
2022/10/12 05:39:38;;;;;;;;;;;5.90;99.90;;;;;;5039115;28;19967;-91
2022/10/12 05:42:04;;;;;;;;;;;5.80;99.90;;;;;;5020825;28;19924;-90
2022/10/12 05:44:29;;;;;;;;;;;5.80;99.90;;;;;;5020590;28;19983;-91
2022/10/12 05:47:01;;;;;;;;;;;6.80;99.90;;;;;;5002589;28;20355;-91
2022/10/12 05:49:27;;;;;;;;;;;5.80;99.90;;;;;;5019122;28;19921;-90
2022/10/12 05:51:53;;;;;;;;;;;6.40;99.90;;;;;;4999310;28;19967;-90
2022/10/12 05:54:18;;;;;;;;;;;5.70;99.90;;;;;;5015727;28;19978;-93
2022/10/12 05:56:44;;;;;;;;;;;5.70;99.90;;;;;;5015437;28;19921;-85
2022/10/12 05:59:10;;;;;;;;;;;6.80;99.90;;;;;;5016353;28;20386;-89
2022/10/12 06:01:36;;;;;;;;;;;6.70;99.90;;;;;;5031114;28;19927;-87
2022/10/12 06:04:01;;;;;;;;;;;7.10;99.90;;;;;;4997238;28;19921;-87
2022/10/12 06:06:27;;;;;;;;;;;6.80;99.90;;;;;;5032343;28;19927;-87
2022/10/12 06:08:52;;;;;;;;;;;6.70;99.90;;;;;;5014591;28;20621;-88
2022/10/12 06:11:18;;;;;;;;;;;6.60;99.90;;;;;;4998994;28;19921;-87
2022/10/12 06:13:43;;;;;;;;;;;5.70;99.90;;;;;;5030378;28;20008;-88
2022/10/12 06:16:09;;;;;;;;;;;7.00;99.90;;;;;;4998323;28;19966;-87
2022/10/12 06:18:34;;;;;;;;;;;5.70;99.90;;;;;;5031835;28;19920;-86
2022/10/12 06:21:00;;;;;;;;;;;6.20;99.90;;;;;;5013517;28;20341;-87
2022/10/12 06:23:26;;;;;;;;;;;6.50;99.90;;;;;;5031182;28;19924;-86
2022/10/12 06:25:51;;;;;;;;;;;5.80;99.90;;;;;;5029591;28;20439;-87
2022/10/12 06:28:19;;;;;;;;;;;5.70;99.90;;;;;;5014136;28;19927;-86
2022/10/12 06:30:45;;;;;;;;;;;5.70;99.90;;;;;;5013857;28;19961;-86
2022/10/12 06:33:10;;;;;;;;;;;5.60;99.90;;;;;;5014394;28;19966;-87
2022/10/12 06:35:36;;;;;;;;;;;5.60;99.90;;;;;;5031249;28;20323;-87
2022/10/12 06:38:01;;;;;;;;;;;6.00;99.90;;;;;;5012957;28;19928;-87
2022/10/12 06:40:27;;;;;;;;;;;5.80;99.90;;;;;;4997724;28;19921;-94
2022/10/12 06:42:53;;;;;;;;;;;6.80;99.90;;;;;;5012839;28;19924;-90
2022/10/12 06:45:18;;;;;;;;;;;5.80;99.90;;;;;;4997771;28;19920;-88
2022/10/12 06:47:44;;;;;;;;;;;5.80;99.90;;;;;;5014803;28;19952;-88
2022/10/12 06:50:10;;;;;;;;;;;5.90;99.90;;;;;;4997741;28;20377;-88
2022/10/12 06:52:36;;;;;;;;;;;7.30;99.90;;;;;;5030308;28;19927;-88
2022/10/12 06:55:02;;;;;;;;;;;6.80;99.90;;;;;;5013430;28;19942;-88
2022/10/12 06:57:28;;;;;;;;;;;6.00;99.90;;;;;;5014108;28;20290;-88
2022/10/12 06:59:53;;;;;;;;;;;7.40;99.90;;;;;;5014007;28;19920;-89
2022/10/12 07:02:19;;;;;;;;;;;7.30;99.90;;;;;;4998816;28;19979;-88
2022/10/12 07:04:48;;;;;;;;;;;6.30;99.90;;;;;;5014777;28;19920;-88
2022/10/12 07:07:14;;;;;;;;;;;7.70;99.90;;;;;;5028026;28;20296;-91
2022/10/12 07:09:39;;;;;;;;;;;6.50;99.90;;;;;;5008089;28;19976;-89
2022/10/12 07:12:05;;;;;;;;;;;6.60;99.90;;;;;;5008120;28;19928;-87
2022/10/12 07:14:31;;;;;;;;;;;6.60;99.90;;;;;;5041555;28;20327;-89
2022/10/12 07:16:57;;;;;;;;;;;6.80;99.90;;;;;;5010068;28;19921;-95
2022/10/12 07:19:22;;;;;;;;;;;7.10;99.90;;;;;;5024218;28;20003;-94
2022/10/12 07:21:48;;;;;;;;;;;6.90;99.90;;;;;;5033527;28;19927;-95
2022/10/12 07:24:14;;;;;;;;;;;8.10;99.90;;;;;;5002356;28;19968;-95
2022/10/12 07:26:40;;;;;;;;;;;7.20;99.90;;;;;;5018523;28;19975;-95
2022/10/12 07:29:06;;;;;;;;;;;7.30;99.90;;;;;;5000021;28;19921;-95
2022/10/12 07:31:31;;;;;;;;;;;8.70;99.90;;;;;;4998889;28;19928;-96
2022/10/12 07:33:57;;;;;;;;;;;8.80;99.90;;;;;;4997410;28;20295;-95
2022/10/12 07:36:23;;;;;;;;;;;7.60;99.90;;;;;;5016178;28;19968;-95
2022/10/12 07:38:49;;;;;;;;;;;8.70;99.90;;;;;;4999992;28;19943;-96
2022/10/12 07:41:15;;;;;;;;;;;8.30;99.90;;;;;;5022025;28;20314;-96
2022/10/12 07:43:41;;;;;;;;;;;7.90;99.90;;;;;;5015754;28;19921;-94
2022/10/12 07:46:06;;;;;;;;;;;8.90;99.90;;;;;;5018812;28;19984;-95
2022/10/12 07:48:32;;;;;;;;;;;8.30;99.90;;;;;;5029162;28;19959;-94
2022/10/12 07:51:02;;;;;;;;;;;8.70;99.90;;;;;;5009094;28;19956;-95
2022/10/12 07:53:28;;;;;;;;;;;8.90;99.90;;;;;;5020953;28;19991;-95
2022/10/12 07:55:58;;;;;;;;;;;10.20;99.90;;;;;;5020376;28;19916;-95
2022/10/12 07:58:24;;;;;;;;;;;9.30;99.90;;;;;;5030544;28;19925;-94
2022/10/12 08:00:49;;;;;;;;;;;9.60;99.90;;;;;;5008733;28;20164;-93
2022/10/12 08:03:15;;;;;;;;;;;9.70;99.90;;;;;;5012518;28;19932;-94
2022/10/12 08:05:41;;;;;;;;;;;9.80;99.90;;;;;;5016793;28;19917;-94
2022/10/12 08:08:07;;;;;;;;;;;10.00;99.90;;;;;;5020119;28;19916;-94
2022/10/12 08:10:33;;;;;;;;;;;10.10;99.90;;;;;;5019712;28;19921;-95
2022/10/12 08:12:59;;;;;;;;;;;10.50;99.90;;;;;;5000658;28;19927;-94
2022/10/12 08:15:24;;;;;;;;;;;10.20;99.90;;;;;;5000296;28;19920;-95
2022/10/12 08:17:50;;;;;;;;;;;10.30;99.90;;;;;;5000891;28;20352;-94
2022/10/12 08:20:16;;;;;;;;;;;10.40;99.90;;;;;;5017453;28;19921;-94
2022/10/12 08:22:42;;;;;;;;;;;10.40;99.90;;;;;;4999882;28;19932;-96
2022/10/12 08:25:07;;;;;;;;;;;10.70;99.90;;;;;;5002851;28;19959;-95
2022/10/12 08:27:34;;;;;;;;;;;10.60;99.90;;;;;;5006677;28;19936;-96
2022/10/12 08:30:00;;;;;;;;;;;12.00;99.90;;;;;;5006790;28;19956;-93
2022/10/12 08:32:26;;;;;;;;;;;12.00;99.90;;;;;;5021801;28;19943;-92
2022/10/12 08:34:51;;;;;;;;;;;11.50;99.90;;;;;;5021423;28;19960;-94
2022/10/12 08:37:17;;;;;;;;;;;11.60;99.90;;;;;;5005259;28;19943;-92
2022/10/12 08:39:42;;;;;;;;;;;11.80;99.90;;;;;;5006705;28;19925;-94
2022/10/12 08:42:29;;;;;;;;;;;11.90;99.90;;;;;;5003529;28;19983;-95
2022/10/12 08:44:54;;;;;;;;;;;11.80;99.90;;;;;;5018171;28;19921;-96
2022/10/12 08:47:24;;;;;;;;;;;13.00;99.90;;;;;;5017447;28;19990;-95
2022/10/12 08:49:50;;;;;;;;;;;12.00;99.90;;;;;;5020107;28;19921;-95
2022/10/12 08:52:28;;;;;;;;;;;12.60;99.90;;;;;;5020104;28;19943;-93
2022/10/12 08:54:56;;;;;;;;;;;12.00;99.90;;;;;;5023160;28;19924;-95
2022/10/12 08:57:27;;;;;;;;;;;12.00;99.90;;;;;;5031030;28;20470;-94
2022/10/12 08:59:53;;;;;;;;;;;12.80;99.90;;;;;;5015508;28;19924;-95
2022/10/12 09:02:33;;;;;;;;;;;11.80;99.90;;;;;;5019631;28;19928;-94
2022/10/12 09:05:01;;;;;;;;;;;11.80;99.90;;;;;;5013482;28;19943;-87
2022/10/12 09:07:33;;;;;;;;;;;11.70;99.90;;;;;;5012216;28;19935;-90
2022/10/12 09:10:14;;;;;;;;;;;11.70;99.90;;;;;;5012231;28;19921;-90
2022/10/12 09:12:43;;;;;;;;;;;11.60;99.90;;;;;;5021920;28;19921;-96
2022/10/12 09:15:13;;;;;;;;;;;11.60;99.90;;;;;;5019959;28;19921;-96
2022/10/12 09:17:57;;;;;;;;;;;11.60;99.90;;;;;;5028741;28;19920;-96
2022/10/12 09:20:32;;;;;;;;;;;11.50;99.90;;;;;;5055832;28;19951;-96
2022/10/12 09:26:21;;;;;;;;;;;11.60;99.90;;;;;;5047803;28;19928;-96
2022/10/12 09:29:01;;;;;;;;;;;11.60;99.90;;;;;;5019911;28;19924;-96
2022/10/12 09:31:37;;;;;;;;;;;11.70;99.90;;;;;;4973528;28;19946;-96
2022/10/12 09:40:43;;;;;;;;;;;12.40;99.90;;;;;;4955001;28;19958;-96
2022/10/12 09:43:27;;;;;;;;;;;12.60;99.90;;;;;;4937654;28;19927;-96
2022/10/12 09:46:13;;;;;;;;;;;12.70;99.90;;;;;;4932780;28;19923;-96
2022/10/12 09:48:55;;;;;;;;;;;12.80;99.90;;;;;;4923275;29;19930;-96
2022/10/12 09:51:21;;;;;;;;;;;13.00;99.90;;;;;;4923962;29;19978;-95
2022/10/12 09:53:48;;;;;;;;;;;13.10;99.90;;;;;;4895772;29;19923;-87
2022/10/12 09:56:24;;;;;;;;;;;13.10;99.90;;;;;;4897387;29;20362;-93
2022/10/12 09:58:55;;;;;;;;;;;13.20;99.90;;;;;;4911623;28;19923;-93
2022/10/12 10:01:25;;;;;;;;;;;13.30;99.90;;;;;;4950951;28;19928;-94
2022/10/12 10:04:12;;;;;;;;;;;13.30;99.90;;;;;;4935960;28;19922;-94
2022/10/12 10:06:50;;;;;;;;;;;13.30;99.90;;;;;;4989355;28;20020;-94
2022/10/12 10:09:32;;;;;;;;;;;13.50;99.90;;;;;;4999061;28;20292;-94
2022/10/12 10:12:10;;;;;;;;;;;13.60;99.90;;;;;;5011605;28;19921;-93
2022/10/12 10:14:36;;;;;;;;;;;13.70;99.90;;;;;;4996951;28;19983;-94
2022/10/12 10:17:02;;;;;;;;;;;13.70;99.90;;;;;;4995032;28;19921;-94
2022/10/12 10:19:27;;;;;;;;;;;13.80;99.90;;;;;;4980773;28;19921;-93
2022/10/12 10:21:54;;;;;;;;;;;15.10;99.90;;;;;;4979647;28;19925;-95
2022/10/12 10:24:23;;;;;;;;;;;13.90;99.90;;;;;;4996203;28;19921;-94
2022/10/12 10:26:50;;;;;;;;;;;14.00;99.90;;;;;;4996392;28;19920;-94
2022/10/12 10:29:19;;;;;;;;;;;14.10;99.90;;;;;;5010366;28;19921;-93
2022/10/12 10:31:46;;;;;;;;;;;14.10;99.90;;;;;;5013026;28;19951;-93
2022/10/12 10:34:31;;;;;;;;;;;14.20;99.90;;;;;;5000592;28;20006;-94
2022/10/12 10:37:17;;;;;;;;;;;14.10;99.90;;;;;;5014243;28;19920;-93
2022/10/12 10:40:02;;;;;;;;;;;14.20;99.90;;;;;;5015868;28;19917;-93
2022/10/12 10:43:05;;;;;;;;;;;14.30;99.90;;;;;;5013147;28;19932;-94
2022/10/12 10:45:51;;;;;;;;;;;14.40;99.90;;;;;;5014118;28;20381;-94
2022/10/12 10:48:21;;;;;;;;;;;14.60;99.90;;;;;;4996226;28;19921;-86
2022/10/12 10:50:51;;;;;;;;;;;14.70;99.90;;;;;;5010094;28;19968;-92
2022/10/12 10:53:19;;;;;;;;;;;14.80;99.90;;;;;;4998326;28;19928;-91
2022/10/12 10:55:48;;;;;;;;;;;14.80;99.90;;;;;;5026494;28;19921;-91
2022/10/12 10:58:35;;;;;;;;;;;14.90;99.90;;;;;;5011232;28;19925;-89
2022/10/12 11:01:27;;;;;;;;;;;15.00;99.90;;;;;;5028488;28;19928;-88
2022/10/12 11:03:55;;;;;;;;;;;15.10;99.90;;;;;;4996090;28;19921;-91
2022/10/12 11:06:36;;;;;;;;;;;15.30;99.90;;;;;;5011245;28;19920;-90
2022/10/12 11:09:05;;;;;;;;;;;15.30;99.90;;;;;;5009906;28;20372;-91
2022/10/12 11:11:33;;;;;;;;;;;15.30;99.90;;;;;;5009837;28;19921;-92
2022/10/12 11:14:03;;;;;;;;;;;15.30;99.90;;;;;;5010831;28;19921;-92
2022/10/12 11:16:45;;;;;;;;;;;15.30;99.90;;;;;;5011062;28;19947;-93
2022/10/12 11:19:10;;;;;;;;;;;15.40;99.90;;;;;;5024012;28;19948;-96
2022/10/12 11:21:42;;;;;;;;;;;15.50;99.90;;;;;;5024802;28;20193;-96
2022/10/12 11:24:07;;;;;;;;;;;15.40;99.90;;;;;;5022506;28;19977;-94
2022/10/12 11:26:33;;;;;;;;;;;15.50;99.90;;;;;;5016649;28;20035;-96
2022/10/12 11:28:59;;;;;;;;;;;15.60;99.90;;;;;;5015504;28;19989;-94
2022/10/12 11:31:38;;;;;;;;;;;15.60;99.90;;;;;;4996916;28;19928;-95
2022/10/12 11:34:05;;;;;;;;;;;15.60;99.90;;;;;;5011475;28;20004;-94
2022/10/12 11:36:32;;;;;;;;;;;15.70;99.90;;;;;;5011876;28;20380;-95
2022/10/12 11:39:06;;;;;;;;;;;15.90;99.90;;;;;;5026821;28;19928;-96
2022/10/12 11:41:51;;;;;;;;;;;15.90;99.90;;;;;;5024273;28;20446;-94
2022/10/12 11:44:21;;;;;;;;;;;15.90;99.90;;;;;;5028769;28;19921;-94
2022/10/12 11:46:51;;;;;;;;;;;15.90;99.90;;;;;;5012402;28;19921;-93
2022/10/12 11:49:19;;;;;;;;;;;16.00;99.90;;;;;;5012321;28;19921;-95
2022/10/12 11:51:54;;;;;;;;;;;16.10;99.90;;;;;;5015784;28;19967;-94
2022/10/12 11:54:25;;;;;;;;;;;16.20;99.90;;;;;;5012104;28;19947;-95
2022/10/12 11:56:53;;;;;;;;;;;16.20;99.90;;;;;;5026337;28;20012;-95
2022/10/12 11:59:24;;;;;;;;;;;16.10;99.90;;;;;;5027513;28;19921;-94
2022/10/12 12:02:01;;;;;;;;;;;16.10;99.90;;;;;;5028667;28;19921;-92
2022/10/12 12:04:32;;;;;;;;;;;16.20;99.90;;;;;;5011235;28;20012;-93
2022/10/12 12:07:02;;;;;;;;;;;16.20;99.90;;;;;;5012441;28;19925;-95
2022/10/12 12:09:30;;;;;;;;;;;16.20;99.90;;;;;;5010958;28;19921;-96
2022/10/12 12:12:13;;;;;;;;;;;16.30;99.90;;;;;;5012852;28;19943;-95
2022/10/12 12:14:45;;;;;;;;;;;16.40;99.90;;;;;;5013499;28;19921;-93
2022/10/12 12:17:15;;;;;;;;;;;16.50;99.90;;;;;;5013125;28;19920;-95
2022/10/12 12:19:42;;;;;;;;;;;16.50;99.90;;;;;;5014140;28;19921;-92
2022/10/12 12:22:11;;;;;;;;;;;16.50;99.90;;;;;;5009416;28;19960;-92
2022/10/12 12:24:37;;;;;;;;;;;16.50;99.90;;;;;;5010579;28;20015;-95
2022/10/12 12:27:02;;;;;;;;;;;16.60;99.90;;;;;;5009446;28;19921;-91
2022/10/12 12:29:28;;;;;;;;;;;16.60;99.90;;;;;;4994016;28;20307;-95
2022/10/12 12:31:55;;;;;;;;;;;16.60;99.90;;;;;;5010595;28;19925;-95
2022/10/12 12:34:21;;;;;;;;;;;16.60;99.90;;;;;;5011109;28;19921;-94
2022/10/12 12:36:48;;;;;;;;;;;16.60;99.90;;;;;;4994678;28;19979;-95
2022/10/12 12:39:23;;;;;;;;;;;16.60;99.90;;;;;;5009239;28;20400;-95
2022/10/12 12:41:54;;;;;;;;;;;16.60;99.90;;;;;;5027876;28;19928;-93
2022/10/12 12:44:39;;;;;;;;;;;16.70;99.90;;;;;;5009126;28;19944;-95
2022/10/12 12:47:24;;;;;;;;;;;16.70;99.90;;;;;;5026831;28;19983;-95
2022/10/12 12:49:55;;;;;;;;;;;16.70;99.90;;;;;;5011637;28;19932;-95
2022/10/12 12:52:25;;;;;;;;;;;16.70;99.90;;;;;;5009633;28;19954;-93
2022/10/12 12:55:03;;;;;;;;;;;16.70;99.90;;;;;;5012213;28;19921;-93
2022/10/12 12:57:42;;;;;;;;;;;16.80;99.90;;;;;;5027415;28;19928;-94
2022/10/12 13:00:11;;;;;;;;;;;16.80;99.90;;;;;;5012570;28;19928;-94
2022/10/12 13:02:55;;;;;;;;;;;16.80;99.90;;;;;;5020076;28;20364;-94
2022/10/12 13:05:24;;;;;;;;;;;16.90;99.90;;;;;;5019152;28;20118;-94
2022/10/12 13:07:49;;;;;;;;;;;16.80;98.70;;;;;;5021243;28;19921;-95
2022/10/12 13:10:27;;;;;;;;;;;16.90;99.90;;;;;;5020642;28;19940;-95
2022/10/12 13:12:59;;;;;;;;;;;16.80;99.90;;;;;;5044198;28;20370;-94
2022/10/12 13:15:33;;;;;;;;;;;16.90;99.90;;;;;;5024510;28;19975;-94
2022/10/12 13:18:15;;;;;;;;;;;16.90;99.90;;;;;;5022176;28;19921;-93
2022/10/12 13:20:43;;;;;;;;;;;16.90;99.90;;;;;;5020333;28;20504;-94
2022/10/12 13:23:12;;;;;;;;;;;16.90;99.90;;;;;;5019765;28;20003;-93
2022/10/12 13:25:43;;;;;;;;;;;17.00;99.90;;;;;;5019235;28;19967;-93
2022/10/12 13:28:11;;;;;;;;;;;17.10;99.90;;;;;;5034456;28;19928;-95
2022/10/12 13:30:44;;;;;;;;;;;17.10;99.60;;;;;;5014289;28;19927;-93
2022/10/12 13:33:10;;;;;;;;;;;17.10;99.90;;;;;;5028101;28;19928;-94
2022/10/12 13:35:39;;;;;;;;;;;17.00;99.90;;;;;;5010050;28;19921;-94
2022/10/12 13:38:25;;;;;;;;;;;16.90;99.90;;;;;;5014682;28;19921;-94
2022/10/12 13:41:01;;;;;;;;;;;16.90;99.90;;;;;;5013415;28;20339;-94
2022/10/12 13:43:33;;;;;;;;;;;16.90;99.90;;;;;;5030458;28;19932;-94
2022/10/12 13:45:59;;;;;;;;;;;16.90;99.90;;;;;;5014372;28;19921;-94
2022/10/12 13:48:25;;;;;;;;;;;16.90;99.90;;;;;;5012861;28;19921;-94
2022/10/12 13:50:55;;;;;;;;;;;16.40;98.50;;;;;;5014429;28;19921;-95
2022/10/12 13:53:21;;;;;;;;;;;16.90;99.90;;;;;;5016710;28;20397;-95
2022/10/12 13:55:59;;;;;;;;;;;16.90;99.00;;;;;;5017435;28;19954;-95
2022/10/12 13:58:27;;;;;;;;;;;17.60;99.90;;;;;;5034486;28;20397;-95
2022/10/12 14:00:53;;;;;;;;;;;16.80;99.90;;;;;;5038343;28;20041;-94
2022/10/12 14:03:23;;;;;;;;;;;16.80;99.90;;;;;;5018723;28;19921;-96
2022/10/12 14:05:49;;;;;;;;;;;16.80;99.90;;;;;;5034983;28;19927;-95
2022/10/12 14:08:16;;;;;;;;;;;16.80;99.90;;;;;;5026172;28;19921;-96
2022/10/12 14:10:43;;;;;;;;;;;15.80;97.00;;;;;;5013412;28;19921;-95
2022/10/12 14:13:24;;;;;;;;;;;16.70;99.10;;;;;;5029785;28;19921;-95
2022/10/12 14:15:51;;;;;;;;;;;16.60;99.90;;;;;;5035108;28;19916;-95
2022/10/12 14:18:36;;;;;;;;;;;16.60;99.60;;;;;;5019855;28;19932;-89
2022/10/12 14:21:09;;;;;;;;;;;16.60;99.90;;;;;;5035590;28;19984;-91
2022/10/12 14:23:34;;;;;;;;;;;16.50;99.90;;;;;;5031939;28;19944;-83
2022/10/12 14:26:00;;;;;;;;;;;16.60;99.90;;;;;;5071277;28;19916;-91
2022/10/12 14:28:29;;;;;;;;;;;16.60;99.90;;;;;;5054785;28;19932;-89
2022/10/12 14:30:55;;;;;;;;;;;16.60;99.90;;;;;;5054828;28;19916;-91
2022/10/12 14:33:21;;;;;;;;;;;16.60;99.90;;;;;;5039206;28;19920;-90
2022/10/12 14:35:48;;;;;;;;;;;16.50;99.90;;;;;;5037829;28;19917;-90
2022/10/12 14:38:33;;;;;;;;;;;16.40;99.90;;;;;;5036501;28;19976;-90
2022/10/12 14:41:18;;;;;;;;;;;16.30;99.90;;;;;;5026445;28;19921;-91
2022/10/12 14:43:44;;;;;;;;;;;16.10;99.90;;;;;;5017096;28;19964;-90